createdAt,value
2023-01-08T10:19:29.430Z,102368.74
2023-01-08T10:21:56.554Z,102372.56
2023-01-08T10:24:34.200Z,102374.39
2023-01-08T10:27:15.188Z,102371.48
2023-01-08T10:29:41.998Z,102372.51
2023-01-08T10:32:13.623Z,102373.54
2023-01-08T10:34:48.353Z,102371.48
2023-01-08T10:37:26.466Z,102372.34
2023-01-08T10:39:54.911Z,102374.75
2023-01-08T10:42:22.605Z,102378.70
2023-01-08T10:45:01.160Z,102378.27
2023-01-08T10:47:29.706Z,102378.00
2023-01-08T10:49:56.652Z,102376.46
2023-01-08T10:52:32.963Z,102383.73
2023-01-08T10:55:13.204Z,102380.24
2023-01-08T10:57:41.397Z,102372.86
2023-01-08T11:00:26.178Z,102372.70
2023-01-08T11:02:52.951Z,102367.69
2023-01-08T11:05:19.823Z,102361.75
2023-01-08T11:07:52.277Z,102351.76
2023-01-08T11:10:26.596Z,102350.68
2023-01-08T11:12:59.028Z,102340.10
2023-01-08T11:15:31.265Z,102336.23
2023-01-08T11:18:17.382Z,102333.52
2023-01-08T11:20:44.769Z,102327.67
2023-01-08T11:23:25.314Z,102323.04
2023-01-08T11:26:12.005Z,102320.50
2023-01-08T11:28:53.459Z,102321.98
2023-01-08T11:31:38.056Z,102325.23
2023-01-08T11:34:29.958Z,102314.27
2023-01-08T11:37:04.521Z,102307.62
2023-01-08T11:39:32.533Z,102307.02
2023-01-08T11:42:37.007Z,102303.98
2023-01-08T11:45:27.248Z,102308.80
2023-01-08T11:48:14.451Z,102310.17
2023-01-08T11:50:50.135Z,102315.44
2023-01-08T11:53:35.069Z,102314.00
2023-01-08T11:56:06.053Z,102312.83
2023-01-08T11:58:41.512Z,102312.67
2023-01-08T12:01:08.370Z,102316.52
2023-01-08T12:03:51.868Z,102317.95
2023-01-08T12:06:31.188Z,102315.23
2023-01-08T12:09:24.280Z,102319.92
2023-01-08T12:12:13.960Z,102313.67
2023-01-08T12:14:45.613Z,102314.39
2023-01-08T12:17:20.205Z,102312.94
2023-01-08T12:20:13.591Z,102315.94
2023-01-08T12:22:47.414Z,102315.84
2023-01-08T12:25:36.363Z,102319.59
2023-01-08T12:28:17.826Z,102321.79
2023-01-08T12:31:06.794Z,102324.66
2023-01-08T12:33:40.405Z,102324.84
2023-01-08T12:36:11.092Z,102323.50
2023-01-08T12:38:43.494Z,102321.78
2023-01-08T12:41:14.585Z,102327.41
2023-01-08T12:43:58.411Z,102328.25
2023-01-08T12:46:27.143Z,102329.11
2023-01-08T12:48:54.069Z,102330.81
2023-01-08T12:51:56.949Z,102331.86
2023-01-08T12:54:32.039Z,102334.96
2023-01-08T12:57:22.438Z,102338.70
2023-01-08T13:00:23.793Z,102333.89
2023-01-08T13:02:58.659Z,102337.44
2023-01-08T13:05:25.402Z,102336.73
2023-01-08T13:08:00.707Z,102332.27
2023-01-08T13:10:40.654Z,102333.31
2023-01-08T13:13:08.882Z,102334.33
2023-01-08T13:15:35.611Z,102334.85
2023-01-08T13:18:16.555Z,102332.22
2023-01-08T13:20:43.772Z,102334.70
2023-01-08T13:23:22.047Z,102336.15
2023-01-08T13:25:53.318Z,102337.63
2023-01-08T13:28:43.855Z,102335.96
2023-01-08T13:31:10.802Z,102332.65
2023-01-08T13:33:39.919Z,102327.80
2023-01-08T13:36:13.013Z,102328.73
2023-01-08T13:38:40.978Z,102325.23
2023-01-08T13:41:46.197Z,102320.79
2023-01-08T13:44:27.757Z,102320.49
2023-01-08T13:46:58.815Z,102322.29
2023-01-08T13:49:47.736Z,102325.63
2023-01-08T13:52:47.007Z,102327.40
2023-01-08T13:55:36.892Z,102329.35
2023-01-08T13:58:06.192Z,102334.39
2023-01-08T14:00:43.685Z,102337.59
2023-01-08T14:44:42.625Z,102334.10
2023-01-08T14:47:17.177Z,102332.68
2023-01-08T14:49:49.120Z,102324.84
2023-01-08T16:15:34.011Z,102352.02
2023-01-08T16:18:00.986Z,102347.71
2023-01-08T16:20:27.737Z,102342.46
2023-01-08T16:22:56.054Z,102339.61
2023-01-08T16:25:24.282Z,102337.08
2023-01-08T16:27:51.647Z,102340.42
2023-01-08T16:30:18.576Z,102338.17
2023-01-08T16:32:50.471Z,102339.80
2023-01-08T16:35:17.262Z,102336.77
2023-01-08T16:37:44.012Z,102332.25
2023-01-08T16:40:11.506Z,102333.48
2023-01-08T16:42:38.107Z,102334.08
2023-01-08T16:45:07.985Z,102330.95
2023-01-08T16:47:37.691Z,102334.05
2023-01-08T16:50:04.709Z,102334.92
2023-01-08T16:52:31.544Z,102335.96
2023-01-08T16:54:58.174Z,102338.42
2023-01-08T16:57:24.759Z,102335.48
2023-01-08T16:59:51.459Z,102335.01
2023-01-08T17:02:18.852Z,102337.16
2023-01-08T17:04:45.379Z,102330.49
2023-01-08T17:07:14.746Z,102337.54
2023-01-08T17:09:41.434Z,102336.08
2023-01-08T17:12:08.544Z,102337.39
2023-01-08T17:14:36.302Z,102331.33
2023-01-08T17:17:03.160Z,102330.15
2023-01-08T17:19:29.815Z,102333.67
2023-01-08T17:21:56.870Z,102334.13
2023-01-08T17:24:23.943Z,102338.00
2023-01-08T17:26:50.493Z,102334.94
2023-01-08T17:29:17.079Z,102333.18
2023-01-08T17:31:43.699Z,102329.36
2023-01-08T17:34:11.578Z,102321.72
2023-01-08T17:36:38.304Z,102317.21
2023-01-08T17:39:05.704Z,102316.50
2023-01-08T17:41:52.952Z,102317.02
2023-01-08T17:44:19.675Z,102323.89
2023-01-08T17:46:49.381Z,102318.57
2023-01-08T17:49:16.149Z,102323.09
2023-01-08T17:51:43.477Z,102321.42
2023-01-08T17:54:14.580Z,102313.91
2023-01-08T17:56:41.437Z,102315.67
2023-01-08T17:59:12.041Z,102319.56
2023-01-08T18:01:38.623Z,102322.48
2023-01-08T18:04:05.963Z,102315.14
2023-01-08T18:06:32.516Z,102312.70
2023-01-08T18:08:59.737Z,102310.66
2023-01-08T18:11:26.532Z,102315.70
2023-01-08T18:13:57.232Z,102317.52
2023-01-08T18:16:24.191Z,102319.76
2023-01-08T18:18:51.266Z,102324.36
2023-01-08T18:21:19.375Z,102320.92
2023-01-08T18:23:46.865Z,102318.55
2023-01-08T18:26:15.213Z,102315.67
2023-01-08T18:28:42.550Z,102314.38
2023-01-08T18:31:10.467Z,102313.55
2023-01-08T18:33:38.879Z,102315.38
2023-01-08T18:36:09.979Z,102314.13
2023-01-08T18:38:40.222Z,102318.34
2023-01-08T18:41:07.299Z,102322.15
2023-01-08T18:43:34.918Z,102329.26
2023-01-08T18:46:04.064Z,102335.15
2023-01-08T18:48:31.764Z,102341.03
2023-01-08T18:58:43.329Z,102350.32
2023-01-08T19:01:10.431Z,102348.95
2023-01-08T19:03:37.596Z,102346.23
2023-01-08T19:06:04.743Z,102351.90
2023-01-08T19:08:31.688Z,102356.95
2023-01-08T19:11:02.809Z,102357.39
2023-01-08T19:13:29.691Z,102363.31
2023-01-08T19:15:56.458Z,102368.25
2023-01-08T19:18:23.169Z,102375.66
2023-01-08T19:20:50.261Z,102376.97
2023-01-08T19:23:17.174Z,102378.69
2023-01-08T19:25:44.061Z,102378.85
2023-01-08T19:28:11.065Z,102385.67
2023-01-08T19:30:38.033Z,102385.08
2023-01-08T19:33:04.829Z,102385.40
2023-01-08T19:35:31.904Z,102390.70
2023-01-08T19:37:58.669Z,102396.74
2023-01-08T19:40:25.589Z,102396.48
2023-01-08T19:43:11.393Z,102397.27
2023-01-08T19:45:38.462Z,102402.47
2023-01-08T19:48:06.138Z,102400.58
2023-01-08T19:50:34.453Z,102401.55
2023-01-08T19:53:01.422Z,102402.06
2023-01-08T19:55:28.263Z,102403.45
2023-01-08T19:57:55.043Z,102400.11
2023-01-08T20:00:24.757Z,102399.34
2023-01-08T20:02:51.791Z,102399.46
2023-01-08T20:05:18.783Z,102402.55
2023-01-08T20:07:45.881Z,102397.80
2023-01-08T20:10:12.883Z,102397.57
2023-01-08T20:12:40.136Z,102390.45
2023-01-08T20:15:07.616Z,102389.91
2023-01-08T20:17:34.334Z,102391.84
2023-01-08T20:20:01.060Z,102387.67
2023-01-08T20:22:29.310Z,102388.65
2023-01-08T20:24:58.365Z,102386.38
2023-01-08T20:27:25.600Z,102383.55
2023-01-08T20:29:52.369Z,102386.85
2023-01-08T20:32:22.114Z,102387.77
2023-01-08T20:34:51.244Z,102385.84
2023-01-08T20:37:18.709Z,102389.27
2023-01-08T20:39:46.588Z,102389.12
2023-01-08T20:42:17.652Z,102390.29
2023-01-08T20:44:54.289Z,102388.96
2023-01-08T20:47:21.232Z,102390.46
2023-01-08T20:49:48.292Z,102383.73
2023-01-08T20:52:16.775Z,102382.68
2023-01-08T20:54:43.723Z,102383.88
2023-01-08T20:57:10.453Z,102389.23
2023-01-08T20:59:37.328Z,102391.70
2023-01-08T21:02:04.804Z,102391.67
2023-01-08T21:04:31.766Z,102395.91
2023-01-08T21:06:59.178Z,102397.39
2023-01-08T21:09:26.181Z,102397.41
2023-01-08T21:11:53.067Z,102394.79
2023-01-08T21:14:19.800Z,102403.50
2023-01-08T21:16:46.790Z,102405.83
2023-01-08T21:19:17.956Z,102403.91
2023-01-08T21:21:45.977Z,102400.97
2023-01-08T21:27:03.291Z,102397.53
2023-01-08T21:29:30.031Z,102398.00
2023-01-08T21:31:56.896Z,102398.25
2023-01-08T21:34:23.708Z,102395.98
2023-01-08T21:36:50.462Z,102396.89
2023-01-08T21:39:17.301Z,102396.94
2023-01-08T21:42:03.129Z,102395.09
2023-01-08T21:44:48.728Z,102395.36
2023-01-08T21:47:17.139Z,102396.17
2023-01-08T21:49:44.708Z,102393.19
2023-01-08T21:52:30.285Z,102394.02
2023-01-08T21:54:58.324Z,102393.44
2023-01-08T21:57:27.827Z,102390.45
2023-01-08T21:59:56.228Z,102396.80
2023-01-08T22:02:24.182Z,102394.30
2023-01-08T22:04:53.524Z,102391.33
2023-01-08T22:07:20.376Z,102386.14
2023-01-08T22:09:47.223Z,102385.40
2023-01-08T22:12:15.894Z,102382.23
2023-01-08T22:14:42.750Z,102381.77
2023-01-08T22:17:09.597Z,102378.23
2023-01-08T22:19:39.613Z,102378.25
2023-01-08T22:22:09.453Z,102379.36
2023-01-08T22:24:37.283Z,102383.46
2023-01-08T22:27:04.132Z,102382.45
2023-01-08T22:29:31.597Z,102384.46
2023-01-08T22:31:58.752Z,102389.31
2023-01-08T22:34:25.611Z,102383.69
2023-01-08T22:36:53.156Z,102379.46
2023-01-08T22:39:19.921Z,102376.53
2023-01-08T22:41:46.640Z,102375.12
2023-01-08T22:44:13.582Z,102376.23
2023-01-08T22:46:40.739Z,102372.27
2023-01-08T22:49:07.522Z,102366.48
2023-01-08T22:51:34.407Z,102363.80
2023-01-08T22:54:01.273Z,102365.19
2023-01-08T22:56:28.192Z,102365.26
2023-01-08T22:58:54.953Z,102367.98
2023-01-08T23:01:23.430Z,102372.08
2023-01-08T23:03:58.473Z,102372.52
2023-01-08T23:06:26.616Z,102368.25
2023-01-08T23:08:53.749Z,102366.59
2023-01-08T23:11:21.048Z,102363.17
2023-01-08T23:13:48.113Z,102358.55
2023-01-08T23:16:16.205Z,102357.81
2023-01-08T23:18:43.309Z,102355.25
2023-01-08T23:21:15.018Z,102356.23
2023-01-08T23:23:41.913Z,102350.42
2023-01-08T23:26:18.009Z,102351.73
2023-01-08T23:28:45.834Z,102353.11
2023-01-08T23:31:15.862Z,102350.52
2023-01-08T23:33:43.106Z,102351.47
2023-01-08T23:36:10.148Z,102342.02
2023-01-08T23:38:36.842Z,102339.13
2023-01-08T23:41:06.532Z,102344.98
2023-01-08T23:43:33.361Z,102346.16
2023-01-08T23:46:04.315Z,102345.03
2023-01-08T23:48:31.345Z,102345.02
2023-01-08T23:50:58.197Z,102344.69
2023-01-08T23:53:25.113Z,102344.21
2023-01-08T23:55:52.063Z,102341.19
2023-01-08T23:58:18.905Z,102336.05
